Time;durP1;ratioP1;P1;durP2;ratioP2;P2;SDS_P1;SDS_P2;PMS_P1;PMS_P2;Temp;Humidity;BMP_temperature;BMP_pressure;BME280_temperature;BME280_humidity;BME280_pressure;Samples;Min_cycle;Max_cycle;Signal;HPM_P1;HPM_P2
2023/05/17 00:01:15;;;;;;;2.20;1.40;;;;;;;8.80;90.94;100765.78;5023469;28;20638;-77
2023/05/17 00:03:40;;;;;;;2.20;1.47;;;;;;;8.76;91.30;100770.94;5008082;28;20195;-77
2023/05/17 00:06:06;;;;;;;2.73;1.40;;;;;;;8.72;91.40;100771.75;5037207;28;20209;-78
2023/05/17 00:08:31;;;;;;;3.23;1.50;;;;;;;8.67;91.58;100777.75;5011015;28;20202;-78
2023/05/17 00:10:57;;;;;;;2.73;1.50;;;;;;;8.63;91.81;100780.31;5004792;28;20669;-78
2023/05/17 00:13:22;;;;;;;2.27;1.10;;;;;;;8.60;92.22;100775.13;5030757;28;20628;-77
2023/05/17 00:15:53;;;;;;;2.87;1.30;;;;;;;8.57;92.49;100767.34;5076794;27;1293605;-78
2023/05/17 00:18:18;;;;;;;2.60;1.30;;;;;;;8.53;92.32;100771.63;5105592;28;20446;-78
2023/05/17 00:20:43;;;;;;;3.47;1.40;;;;;;;8.48;92.36;100770.72;5103945;28;20313;-77
2023/05/17 00:23:08;;;;;;;3.53;1.40;;;;;;;8.42;92.33;100786.97;5104534;28;20180;-75
2023/05/17 00:25:34;;;;;;;2.87;1.40;;;;;;;8.38;92.51;100783.53;5100576;28;20215;-76
2023/05/17 00:27:59;;;;;;;3.93;1.60;;;;;;;8.36;92.04;100785.22;5098448;28;20584;-77
2023/05/17 00:30:24;;;;;;;4.10;1.50;;;;;;;8.33;91.99;100786.91;5102258;28;20520;-77
2023/05/17 00:32:50;;;;;;;3.97;1.50;;;;;;;8.29;92.32;100790.31;5077563;28;20185;-76
2023/05/17 00:35:15;;;;;;;1.90;1.27;;;;;;;8.25;92.52;100797.16;5098247;28;20698;-77
2023/05/17 00:37:46;;;;;;;2.03;1.50;;;;;;;8.20;92.68;100791.97;5084895;28;20180;-76
2023/05/17 00:40:12;;;;;;;2.70;1.47;;;;;;;8.18;93.16;100788.50;5077211;28;20192;-77
2023/05/17 00:42:38;;;;;;;1.73;1.10;;;;;;;8.18;93.47;100792.78;5095345;28;20182;-75
2023/05/17 00:45:04;;;;;;;4.23;1.50;;;;;;;8.16;93.67;100797.94;5098486;28;20185;-76
2023/05/17 00:47:29;;;;;;;1.87;1.20;;;;;;;8.15;94.54;100792.78;5084893;28;20250;-78
2023/05/17 00:49:54;;;;;;;3.50;1.20;;;;;;;8.12;94.93;100801.34;5081120;28;20956;-77
2023/05/17 00:52:20;;;;;;;1.90;1.40;;;;;;;8.10;95.40;100803.03;5102440;28;20185;-78
2023/05/17 00:54:45;;;;;;;2.93;1.20;;;;;;;8.06;95.52;100803.88;5098217;28;20274;-77
2023/05/17 00:57:11;;;;;;;1.87;1.27;;;;;;;8.05;96.36;100802.16;5101440;28;20211;-76
2023/05/17 00:59:37;;;;;;;2.90;1.23;;;;;;;8.02;96.74;100799.53;5081918;28;20193;-78
2023/05/17 01:02:03;;;;;;;3.40;1.40;;;;;;;7.97;97.02;100796.91;5078019;28;20188;-75
2023/05/17 01:04:28;;;;;;;2.37;1.37;;;;;;;7.93;97.54;100802.88;5092783;28;20183;-76
2023/05/17 01:06:54;;;;;;;3.30;1.50;;;;;;;7.87;97.75;100800.22;5076687;28;20287;-77
2023/05/17 01:09:20;;;;;;;1.57;1.10;;;;;;;7.84;98.15;100810.53;5094116;28;20178;-77
2023/05/17 01:12:10;;;;;;;2.40;1.47;;;;;;;7.80;98.65;100813.91;5092402;28;20180;-76
2023/05/17 01:15:13;;;;;;;2.33;1.70;;;;;;;7.77;98.98;100809.59;5100997;28;21036;-79
2023/05/17 01:18:07;;;;;;;3.13;1.40;;;;;;;7.72;99.58;100806.94;5096798;28;20668;-76
2023/05/17 01:20:42;;;;;;;1.57;1.27;;;;;;;7.72;100.00;100811.25;5075118;28;20243;-78
2023/05/17 01:23:34;;;;;;;1.87;1.50;;;;;;;7.69;100.00;100817.25;5099744;28;20711;-76
2023/05/17 01:26:06;;;;;;;2.13;1.20;;;;;;;7.66;100.00;100814.63;5093079;28;20203;-78
2023/05/17 01:28:33;;;;;;;1.50;1.30;;;;;;;7.62;100.00;100828.31;5067368;28;20181;-78
2023/05/17 01:31:01;;;;;;;2.63;1.50;;;;;;;7.57;100.00;100825.69;5063700;28;20183;-77
2023/05/17 01:33:27;;;;;;;1.60;1.30;;;;;;;7.53;100.00;100821.31;5080664;28;20184;-76
2023/05/17 01:35:52;;;;;;;3.17;1.77;;;;;;;7.48;100.00;100826.44;5067935;28;20209;-77
2023/05/17 01:38:17;;;;;;;2.87;1.57;;;;;;;7.42;100.00;100823.75;5089075;28;20889;-77
2023/05/17 01:41:03;;;;;;;3.07;1.73;;;;;;;7.37;100.00;100824.56;5065409;28;20187;-77
2023/05/17 01:43:45;;;;;;;1.40;1.23;;;;;;;7.30;100.00;100834.78;5083602;28;20288;-77
2023/05/17 01:46:18;;;;;;;2.43;1.57;;;;;;;7.25;100.00;100843.31;5085203;28;20204;-76
2023/05/17 01:49:06;;;;;;;1.87;1.30;;;;;;;7.20;100.00;100847.50;5087387;28;20193;-76
2023/05/17 01:51:40;;;;;;;1.63;1.20;;;;;;;7.15;100.00;100844.88;5082043;28;20188;-77
2023/05/17 01:54:10;;;;;;;1.77;1.40;;;;;;;7.10;100.00;100842.25;5087740;28;20250;-78
2023/05/17 01:56:43;;;;;;;2.47;1.70;;;;;;;7.06;100.00;100845.59;5084666;28;20230;-76
2023/05/17 01:59:10;;;;;;;2.67;1.50;;;;;;;7.06;100.00;100847.31;5066921;28;20197;-76
2023/05/17 02:01:37;;;;;;;2.13;1.40;;;;;;;7.01;100.00;100849.81;5085269;28;20197;-77
2023/05/17 02:04:02;;;;;;;2.00;1.77;;;;;;;6.96;100.00;100847.19;5066663;28;20217;-77
2023/05/17 02:06:28;;;;;;;1.73;1.33;;;;;;;6.93;100.00;100844.56;5080422;28;20310;-78
2023/05/17 02:08:53;;;;;;;2.97;1.40;;;;;;;6.89;100.00;100853.06;5085933;28;20191;-78
2023/05/17 02:11:19;;;;;;;2.33;1.50;;;;;;;6.86;100.00;100848.75;5082533;28;20237;-77
2023/05/17 02:13:44;;;;;;;2.07;1.53;;;;;;;6.84;100.00;100855.56;5086337;28;20183;-76
2023/05/17 02:16:10;;;;;;;2.73;1.60;;;;;;;6.84;100.00;100858.13;5079540;28;20224;-77
2023/05/17 02:18:36;;;;;;;1.47;1.30;;;;;;;6.84;100.00;100855.56;5087976;28;20244;-77
2023/05/17 02:21:01;;;;;;;2.47;1.53;;;;;;;6.83;100.00;100855.56;5110638;28;20183;-78
2023/05/17 02:23:27;;;;;;;2.23;1.50;;;;;;;6.81;100.00;100854.66;5085481;28;20193;-77
2023/05/17 02:25:52;;;;;;;1.70;1.50;;;;;;;6.83;100.00;100855.56;5072163;28;20548;-77
2023/05/17 02:28:17;;;;;;;1.67;1.50;;;;;;;6.82;100.00;100854.66;5086423;28;20702;-76
2023/05/17 02:30:44;;;;;;;1.60;1.50;;;;;;;6.81;100.00;100864.94;5087292;28;20186;-76
2023/05/17 02:33:10;;;;;;;3.07;1.50;;;;;;;6.82;100.00;100864.97;5091913;28;20179;-77
2023/05/17 02:35:35;;;;;;;2.43;1.73;;;;;;;6.83;100.00;100860.69;5067688;28;20240;-77
2023/05/17 02:38:00;;;;;;;2.23;1.70;;;;;;;6.89;100.00;100867.66;5071935;28;20194;-76
2023/05/17 02:40:26;;;;;;;3.17;1.97;;;;;;;6.90;100.00;100867.66;5087011;28;20190;-76
2023/05/17 02:42:51;;;;;;;2.00;1.57;;;;;;;6.91;100.00;100861.66;5071068;28;20288;-77
2023/05/17 02:45:16;;;;;;;2.30;1.63;;;;;;;6.94;100.00;100866.03;5072627;28;20306;-77
2023/05/17 02:47:42;;;;;;;2.77;1.90;;;;;;;6.94;100.00;100864.28;5085687;28;20713;-78
2023/05/17 02:50:08;;;;;;;3.33;1.80;;;;;;;6.98;100.00;100872.91;5086291;28;20273;-77
2023/05/17 02:52:33;;;;;;;1.63;1.50;;;;;;;7.00;100.00;100866.97;5087466;28;20192;-77
2023/05/17 02:54:58;;;;;;;2.33;1.77;;;;;;;7.03;100.00;100865.28;5064342;28;20572;-77
2023/05/17 02:57:24;;;;;;;2.33;1.70;;;;;;;7.04;100.00;100867.88;5086712;28;20206;-77
2023/05/17 02:59:49;;;;;;;1.70;1.30;;;;;;;7.04;100.00;100878.16;5085298;28;20196;-77
2023/05/17 03:02:15;;;;;;;3.00;1.50;;;;;;;7.07;100.00;100867.94;5065796;28;20195;-77
2023/05/17 03:04:40;;;;;;;2.43;1.50;;;;;;;7.07;100.00;100864.47;5062318;28;20202;-77
2023/05/17 03:07:06;;;;;;;2.60;1.77;;;;;;;7.10;100.00;100869.69;5087527;28;20216;-77
2023/05/17 03:09:31;;;;;;;3.20;1.60;;;;;;;7.12;100.00;100870.56;5088476;28;20761;-78
2023/05/17 03:11:56;;;;;;;1.90;1.53;;;;;;;7.11;100.00;100866.25;5084711;28;20195;-77
2023/05/17 03:14:22;;;;;;;2.87;1.67;;;;;;;7.12;100.00;100862.84;5084097;28;20226;-77
2023/05/17 03:16:47;;;;;;;2.20;1.93;;;;;;;7.15;100.00;100868.03;5088495;28;20603;-77
2023/05/17 03:19:12;;;;;;;2.00;1.50;;;;;;;7.18;100.00;100870.66;5068470;28;20203;-76
2023/05/17 03:21:38;;;;;;;2.37;1.80;;;;;;;7.22;100.00;100876.72;5067196;28;20185;-78
2023/05/17 03:24:03;;;;;;;3.10;1.90;;;;;;;7.25;100.00;100876.78;5066569;28;20187;-79
2023/05/17 03:26:30;;;;;;;2.90;1.50;;;;;;;7.25;100.00;100869.91;5083537;28;20210;-78
2023/05/17 03:28:56;;;;;;;3.07;1.60;;;;;;;7.27;100.00;100877.63;5087052;28;20267;-77
2023/05/17 03:31:21;;;;;;;4.07;1.70;;;;;;;7.30;100.00;100883.72;5082549;28;20207;-77
2023/05/17 03:33:47;;;;;;;2.67;2.00;;;;;;;7.31;100.00;100880.28;5083282;28;20194;-78
2023/05/17 03:36:12;;;;;;;3.93;1.90;;;;;;;7.34;100.00;100879.47;5084110;28;20199;-77
2023/05/17 03:38:37;;;;;;;2.83;1.80;;;;;;;7.33;100.00;100891.44;5089163;28;20177;-77
2023/05/17 03:41:03;;;;;;;3.20;2.07;;;;;;;7.34;100.00;100887.19;5083092;28;20199;-76
2023/05/17 03:43:28;;;;;;;2.83;2.03;;;;;;;7.32;100.00;100894.91;5088010;28;20596;-78
2023/05/17 03:45:54;;;;;;;2.23;1.80;;;;;;;7.31;100.00;100894.84;5080368;28;20198;-77
2023/05/17 03:48:19;;;;;;;4.47;2.00;;;;;;;7.34;100.00;100894.91;5085603;28;20700;-76
2023/05/17 03:50:44;;;;;;;3.40;2.10;;;;;;;7.38;100.00;100898.38;5087660;28;20211;-77
2023/05/17 03:53:10;;;;;;;2.00;1.77;;;;;;;7.41;100.00;100896.72;5078317;28;20181;-79
2023/05/17 03:55:36;;;;;;;2.87;2.00;;;;;;;7.49;100.00;100896.81;5064118;28;20235;-76
2023/05/17 03:58:01;;;;;;;2.73;1.80;;;;;;;7.58;100.00;100904.69;5086483;28;20734;-76
2023/05/17 04:00:27;;;;;;;2.80;2.07;;;;;;;7.65;100.00;100902.16;5080366;28;20192;-78
2023/05/17 04:02:52;;;;;;;3.67;2.10;;;;;;;7.72;100.00;100904.84;5081714;28;20279;-76
2023/05/17 04:05:18;;;;;;;3.90;2.40;;;;;;;7.76;100.00;100898.03;5088191;28;20178;-77
2023/05/17 04:07:44;;;;;;;3.17;2.00;;;;;;;7.78;100.00;100904.94;5084895;28;20226;-76
2023/05/17 04:10:09;;;;;;;3.03;1.83;;;;;;;7.82;100.00;100908.41;5086346;28;20189;-76
2023/05/17 04:12:35;;;;;;;2.63;1.83;;;;;;;7.87;100.00;100909.34;5064508;28;20267;-76
2023/05/17 04:15:01;;;;;;;3.07;2.00;;;;;;;7.93;100.00;100916.28;5085308;28;20296;-77
2023/05/17 04:17:27;;;;;;;4.20;2.17;;;;;;;7.97;100.00;100919.75;5085480;28;20609;-78
2023/05/17 04:19:52;;;;;;;2.57;2.10;;;;;;;8.00;100.00;100925.84;5084018;28;20185;-77
2023/05/17 04:22:19;;;;;;;5.30;2.40;;;;;;;8.03;100.00;100914.69;5086447;28;20185;-77
2023/05/17 04:24:45;;;;;;;3.50;2.20;;;;;;;8.09;100.00;100930.22;5062035;28;20188;-76
2023/05/17 04:27:10;;;;;;;2.53;2.23;;;;;;;8.16;100.00;100929.44;5070549;28;20205;-76
2023/05/17 04:29:35;;;;;;;4.53;2.30;;;;;;;8.27;100.00;100929.56;5070046;28;20192;-77
2023/05/17 04:32:01;;;;;;;3.50;2.07;;;;;;;8.39;100.00;100931.41;5070160;28;20185;-76
2023/05/17 04:34:26;;;;;;;3.30;2.17;;;;;;;8.48;100.00;100934.09;5088838;28;20201;-76
2023/05/17 04:36:51;;;;;;;2.27;2.00;;;;;;;8.57;99.63;100933.34;5091172;28;20458;-76
2023/05/17 04:39:17;;;;;;;3.53;2.50;;;;;;;8.66;99.54;100936.00;5086529;28;20208;-78
2023/05/17 04:41:42;;;;;;;2.63;2.10;;;;;;;8.78;99.31;100942.09;5070956;28;20181;-77
2023/05/17 04:44:07;;;;;;;4.17;2.30;;;;;;;8.90;98.96;100943.94;5089671;28;20200;-77
2023/05/17 04:46:33;;;;;;;3.10;2.00;;;;;;;9.01;98.74;100944.88;5087645;28;20205;-77
2023/05/17 04:48:59;;;;;;;3.47;2.43;;;;;;;9.12;98.37;100950.16;5067378;28;20554;-77
2023/05/17 04:51:25;;;;;;;3.17;2.23;;;;;;;9.20;98.01;100952.78;5082704;28;20196;-76
2023/05/17 04:53:51;;;;;;;2.80;2.30;;;;;;;9.34;97.92;100963.22;5082048;28;20186;-78
2023/05/17 04:56:16;;;;;;;3.07;1.93;;;;;;;9.52;97.46;100959.88;5064474;28;20217;-77
2023/05/17 04:58:42;;;;;;;2.80;2.10;;;;;;;9.67;97.26;100959.97;5070627;28;20277;-77
2023/05/17 05:01:07;;;;;;;4.63;2.10;;;;;;;9.77;96.25;100966.91;5066336;28;20186;-77
2023/05/17 05:03:32;;;;;;;3.87;2.30;;;;;;;9.93;95.80;100960.97;5068793;28;20562;-77
2023/05/17 05:05:58;;;;;;;3.87;2.27;;;;;;;10.00;95.19;100970.47;5081074;28;20198;-77
2023/05/17 05:08:23;;;;;;;5.83;2.57;;;;;;;10.25;94.42;100970.59;5084639;28;20178;-77
2023/05/17 05:10:50;;;;;;;4.60;2.47;;;;;;;10.61;93.15;100971.56;5088653;28;20723;-76
2023/05/17 05:13:15;;;;;;;3.87;2.33;;;;;;;10.83;91.61;100973.34;5092874;28;20612;-76
2023/05/17 05:15:41;;;;;;;2.37;2.17;;;;;;;10.96;90.20;100970.75;5069429;28;20233;-77
2023/05/17 05:18:06;;;;;;;5.10;2.30;;;;;;;11.12;89.58;100975.06;5073190;28;20185;-77
2023/05/17 05:20:31;;;;;;;2.40;2.03;;;;;;;11.52;89.13;100984.53;5087839;28;20202;-77
2023/05/17 05:22:57;;;;;;;3.30;2.53;;;;;;;11.87;87.30;100982.72;5089313;28;20908;-77
2023/05/17 05:25:23;;;;;;;3.37;2.00;;;;;;;12.18;86.55;100983.47;5090902;28;20197;-77
2023/05/17 05:27:48;;;;;;;2.67;1.93;;;;;;;12.64;85.22;100974.59;5092477;28;20619;-77
2023/05/17 05:30:20;;;;;;;3.70;2.57;;;;;;;13.07;82.77;100988.16;5092288;28;20188;-77
2023/05/17 05:32:49;;;;;;;2.67;2.27;;;;;;;13.52;82.21;100990.38;5094119;28;20948;-77
2023/05/17 05:35:16;;;;;;;2.33;1.93;;;;;;;13.61;80.78;100990.28;5077779;28;20269;-77
2023/05/17 05:37:42;;;;;;;4.97;2.47;;;;;;;13.61;80.42;100990.28;5063709;28;20187;-78
2023/05/17 05:40:09;;;;;;;3.37;2.50;;;;;;;13.53;79.77;100994.72;5085606;28;20184;-76
2023/05/17 05:42:34;;;;;;;4.60;2.60;;;;;;;13.38;79.64;100995.69;5089983;28;20848;-76
2023/05/17 05:44:59;;;;;;;4.87;2.60;;;;;;;13.20;79.94;101000.16;5076023;28;20169;-76
2023/05/17 05:47:25;;;;;;;4.93;2.40;;;;;;;13.07;80.42;100999.41;5095359;28;20664;-77
2023/05/17 05:49:50;;;;;;;3.77;2.20;;;;;;;13.04;80.83;101004.63;5091837;28;20215;-77
2023/05/17 05:52:16;;;;;;;3.97;2.00;;;;;;;13.09;81.09;101008.03;5083799;28;20224;-77
2023/05/17 05:54:41;;;;;;;3.80;2.73;;;;;;;13.07;80.66;101009.81;5094862;28;20253;-77
2023/05/17 05:57:06;;;;;;;4.60;2.77;;;;;;;13.20;80.42;101007.97;5084643;28;20579;-77
2023/05/17 05:59:32;;;;;;;4.03;3.10;;;;;;;13.87;78.76;101012.53;5071912;28;20192;-78
2023/05/17 06:01:57;;;;;;;4.90;2.70;;;;;;;14.63;76.40;101020.28;5091137;28;20183;-76
2023/05/17 06:04:23;;;;;;;5.63;3.60;;;;;;;14.60;75.73;101012.50;5075779;28;20800;-77
2023/05/17 06:06:49;;;;;;;6.17;3.07;;;;;;;14.75;76.06;101021.88;5092928;28;20329;-77
2023/05/17 06:09:15;;;;;;;6.73;3.10;;;;;;;14.88;75.77;101025.19;5091743;28;20246;-77
2023/05/17 06:11:40;;;;;;;4.20;2.57;;;;;;;14.94;75.15;101022.47;5088519;28;20194;-77
2023/05/17 06:14:07;;;;;;;3.50;2.70;;;;;;;15.06;75.39;101025.75;5089060;28;20209;-77
2023/05/17 06:16:32;;;;;;;4.70;2.80;;;;;;;15.38;74.24;101025.25;5089671;28;20213;-77
2023/05/17 06:18:58;;;;;;;5.10;3.00;;;;;;;15.77;72.92;101029.78;5092662;28;20203;-77
2023/05/17 06:21:24;;;;;;;4.93;2.97;;;;;;;15.72;72.28;101026.38;5070044;28;20724;-77
2023/05/17 06:23:49;;;;;;;6.53;3.20;;;;;;;15.64;72.74;101026.53;5090280;28;20186;-77
2023/05/17 06:26:14;;;;;;;5.53;3.50;;;;;;;15.24;72.78;101040.28;5093673;28;20225;-77
2023/05/17 06:28:40;;;;;;;5.57;3.37;;;;;;;14.63;73.89;101033.31;5091701;28;20196;-77
2023/05/17 06:31:05;;;;;;;7.70;3.63;;;;;;;14.54;73.32;101029.97;5073539;28;20200;-76
2023/05/17 06:33:30;;;;;;;5.17;3.70;;;;;;;14.88;72.34;101035.59;5072852;28;20183;-76
2023/05/17 06:35:56;;;;;;;5.80;3.43;;;;;;;15.78;71.44;101036.72;5088857;28;20218;-76
2023/05/17 06:38:22;;;;;;;5.37;3.20;;;;;;;16.92;68.69;101027.41;5085728;28;20177;-77
2023/05/17 06:40:52;;;;;;;5.67;3.40;;;;;;;17.92;66.97;101020.53;5071130;28;20807;-77
2023/05/17 06:43:18;;;;;;;6.57;3.23;;;;;;;18.57;64.98;101027.41;5090814;28;20293;-78
2023/05/17 06:45:43;;;;;;;5.60;3.40;;;;;;;19.10;63.53;101028.41;5087267;28;20262;-79
2023/05/17 06:48:08;;;;;;;6.00;3.50;;;;;;;19.07;63.11;101039.00;5082469;28;20187;-78
2023/05/17 06:50:33;;;;;;;5.97;3.57;;;;;;;18.37;63.27;101033.25;5067120;28;20192;-76
2023/05/17 06:52:59;;;;;;;3.97;3.33;;;;;;;17.73;64.64;101043.75;5087079;28;20183;-75
2023/05/17 06:55:24;;;;;;;5.73;3.37;;;;;;;16.99;66.49;101042.09;5093640;28;20212;-77
2023/05/17 06:57:50;;;;;;;5.23;3.30;;;;;;;16.68;66.81;101050.59;5089447;28;20193;-76
2023/05/17 07:00:15;;;;;;;6.30;3.70;;;;;;;16.44;67.41;101052.00;5073467;28;20191;-77
2023/05/17 07:02:41;;;;;;;5.37;3.40;;;;;;;15.89;67.83;101046.97;5069413;28;20202;-77
2023/05/17 07:05:07;;;;;;;8.30;3.90;;;;;;;15.60;68.83;101050.94;5088903;28;20188;-77
2023/05/17 07:07:32;;;;;;;6.10;3.43;;;;;;;15.67;69.06;101049.09;5071707;28;20205;-77
2023/05/17 07:09:57;;;;;;;5.83;3.43;;;;;;;15.45;70.20;101051.22;5066709;28;20744;-79
2023/05/17 07:12:22;;;;;;;3.50;2.70;;;;;;;15.24;70.79;101054.16;5087045;28;20210;-76
2023/05/17 07:14:48;;;;;;;4.77;3.17;;;;;;;15.15;71.38;101069.94;5075375;28;20244;-75
2023/05/17 07:17:13;;;;;;;5.30;3.70;;;;;;;14.75;71.91;101052.28;5082414;28;20221;-76
2023/05/17 07:19:39;;;;;;;6.50;3.60;;;;;;;14.39;72.43;101057.94;5073708;28;20271;-76
2023/05/17 07:22:04;;;;;;;5.60;3.70;;;;;;;14.13;73.20;101059.09;5072040;28;20177;-77
2023/05/17 07:24:29;;;;;;;5.40;2.97;;;;;;;14.13;73.93;101061.72;5074084;28;20181;-76
2023/05/17 07:26:55;;;;;;;9.70;3.87;;;;;;;14.43;73.49;101054.41;5093273;28;20209;-76
2023/05/17 07:29:20;;;;;;;4.23;3.10;;;;;;;14.58;72.61;101058.56;5091478;28;20290;-77
2023/05/17 07:31:45;;;;;;;5.57;3.10;;;;;;;15.15;71.47;101056.91;5071948;28;20208;-76
2023/05/17 07:34:12;;;;;;;6.13;3.30;;;;;;;15.67;70.67;101064.75;5092643;28;20279;-77
2023/05/17 07:36:37;;;;;;;4.50;3.10;;;;;;;16.22;69.63;101054.19;5065835;28;20208;-76
2023/05/17 07:39:04;;;;;;;5.17;3.00;;;;;;;16.65;68.90;101055.03;5066237;28;20680;-76
2023/05/17 07:41:30;;;;;;;6.13;3.47;;;;;;;16.79;67.85;101052.97;5090689;28;20181;-76
2023/05/17 07:43:55;;;;;;;6.13;3.43;;;;;;;16.65;67.71;101057.63;5089758;28;21146;-77
2023/05/17 07:46:21;;;;;;;5.90;3.00;;;;;;;16.98;67.83;101061.28;5080755;28;20308;-77
2023/05/17 07:48:46;;;;;;;4.60;3.50;;;;;;;17.33;66.95;101058.72;5064278;28;20581;-78
2023/05/17 07:51:11;;;;;;;7.37;3.40;;;;;;;17.35;66.88;101060.38;5089592;28;20234;-76
2023/05/17 07:53:37;;;;;;;3.67;3.07;;;;;;;17.36;66.14;101059.50;5092713;28;20215;-77
2023/05/17 07:56:02;;;;;;;4.70;3.47;;;;;;;17.45;65.35;101052.31;5092036;28;20266;-78
2023/05/17 07:58:28;;;;;;;5.77;3.60;;;;;;;17.32;65.86;101060.47;5089949;28;20193;-77
2023/05/17 08:00:53;;;;;;;4.10;3.17;;;;;;;17.56;65.95;101050.28;5072507;28;20207;-77
2023/05/17 08:03:18;;;;;;;6.63;3.37;;;;;;;16.57;66.30;101053.44;5094040;28;20193;-76
2023/05/17 08:05:44;;;;;;;5.13;3.37;;;;;;;16.54;67.68;101048.28;5074880;28;20615;-77
2023/05/17 08:08:10;;;;;;;6.47;3.93;;;;;;;16.60;66.81;101049.91;5086644;28;20238;-77
2023/05/17 08:10:36;;;;;;;4.77;3.40;;;;;;;16.11;66.83;101043.97;5088196;28;20178;-76
2023/05/17 08:13:03;;;;;;;5.27;3.33;;;;;;;16.49;66.90;101060.56;5093455;28;20185;-77
2023/05/17 08:15:29;;;;;;;5.50;3.70;;;;;;;16.28;67.25;101049.69;5090160;28;20769;-77
2023/05/17 08:17:54;;;;;;;7.10;3.73;;;;;;;16.12;67.69;101043.06;5074241;28;20211;-77
2023/05/17 08:20:20;;;;;;;4.87;3.60;;;;;;;15.86;68.84;101049.66;5093020;28;20177;-76
2023/05/17 08:22:46;;;;;;;4.03;3.17;;;;;;;15.84;67.66;101047.03;5070608;28;20272;-76
2023/05/17 08:25:11;;;;;;;5.70;3.23;;;;;;;16.47;67.10;101038.88;5073703;28;20203;-77
2023/05/17 08:27:37;;;;;;;4.20;3.33;;;;;;;16.32;65.36;101047.03;5070851;28;20305;-77
2023/05/17 08:30:04;;;;;;;7.13;3.83;;;;;;;16.67;65.00;101034.94;5088401;28;20197;-77
2023/05/17 08:32:29;;;;;;;3.80;3.10;;;;;;;17.04;64.75;101036.75;5073787;28;20181;-78
2023/05/17 08:34:57;;;;;;;8.60;4.10;;;;;;;16.97;64.96;101048.22;5070532;28;20203;-78
2023/05/17 08:37:23;;;;;;;5.67;3.27;;;;;;;16.30;64.47;101039.22;5078646;28;20189;-79
2023/05/17 08:39:50;;;;;;;8.23;3.63;;;;;;;15.90;65.98;101040.00;5111647;28;20182;-77
2023/05/17 08:42:20;;;;;;;6.10;3.60;;;;;;;15.83;66.05;101049.69;5077642;28;20174;-76
2023/05/17 08:44:46;;;;;;;5.90;3.30;;;;;;;15.22;67.03;101042.88;5080743;28;20189;-77
2023/05/17 08:47:24;;;;;;;4.53;3.23;;;;;;;15.37;66.68;101041.78;5087790;28;20206;-75
2023/05/17 08:49:50;;;;;;;5.50;3.17;;;;;;;15.29;66.01;101048.84;5090160;28;20200;-76
2023/05/17 08:52:15;;;;;;;4.63;3.30;;;;;;;15.29;66.18;101037.56;5094148;28;20178;-76
2023/05/17 08:54:41;;;;;;;5.27;3.33;;;;;;;15.14;65.57;101036.06;5094548;28;20219;-77
2023/05/17 08:57:08;;;;;;;7.10;3.47;;;;;;;14.86;66.19;101052.13;5094648;28;20653;-77
2023/05/17 08:59:34;;;;;;;6.10;3.50;;;;;;;14.84;66.72;101043.47;5075738;28;20280;-76
2023/05/17 09:02:00;;;;;;;6.47;4.07;;;;;;;14.94;66.83;101030.28;5086553;28;20269;-77
2023/05/17 09:04:28;;;;;;;6.63;3.37;;;;;;;15.29;66.67;101028.00;5068998;28;20249;-76
2023/05/17 09:06:54;;;;;;;6.67;3.53;;;;;;;15.46;66.40;101037.28;5096134;28;20229;-77
2023/05/17 09:09:20;;;;;;;6.23;4.03;;;;;;;15.70;66.98;101039.47;5068927;28;20186;-77
2023/05/17 09:11:45;;;;;;;5.73;3.70;;;;;;;15.91;66.40;101023.47;5092747;28;20185;-77
2023/05/17 09:14:11;;;;;;;3.20;2.67;;;;;;;16.03;66.73;101033.66;5093743;28;20684;-79
2023/05/17 09:16:37;;;;;;;5.80;3.40;;;;;;;16.05;65.83;101025.78;5092216;28;20207;-77
2023/05/17 09:19:04;;;;;;;5.70;3.40;;;;;;;16.26;65.07;101029.75;5087737;28;20177;-76
2023/05/17 09:21:31;;;;;;;6.10;3.87;;;;;;;15.59;65.04;101030.97;5092815;28;20223;-76
2023/05/17 09:23:58;;;;;;;5.87;3.80;;;;;;;15.35;66.42;101033.13;5094646;28;20196;-78
2023/05/17 09:26:24;;;;;;;5.53;3.90;;;;;;;15.36;67.76;101039.19;5072095;28;20632;-78
2023/05/17 09:28:52;;;;;;;5.80;3.83;;;;;;;15.32;67.14;101041.00;5070347;28;20223;-78
2023/05/17 09:31:18;;;;;;;10.13;4.30;;;;;;;14.99;66.82;101038.03;5092386;28;20189;-78
2023/05/17 09:33:44;;;;;;;5.30;3.87;;;;;;;14.88;67.86;101039.94;5093992;28;20185;-78
2023/05/17 09:36:21;;;;;;;6.33;3.83;;;;;;;14.90;68.02;101039.03;5072160;28;20275;-80
2023/05/17 09:38:53;;;;;;;6.50;4.13;;;;;;;14.94;67.36;101037.25;5070729;28;20192;-78
2023/05/17 09:41:19;;;;;;;4.60;3.50;;;;;;;15.02;67.20;101035.38;5093021;28;20238;-76
2023/05/17 09:43:45;;;;;;;5.20;4.40;;;;;;;15.08;66.76;101039.63;5085762;28;20188;-77
2023/05/17 09:46:10;;;;;;;6.10;4.20;;;;;;;15.03;67.25;101039.72;5093837;28;20940;-77
2023/05/17 09:48:37;;;;;;;4.53;3.87;;;;;;;15.07;67.55;101038.78;5093692;28;20189;-77
2023/05/17 09:51:04;;;;;;;5.67;3.97;;;;;;;15.16;67.91;101047.34;5067403;28;20184;-76
2023/05/17 09:53:32;;;;;;;5.67;4.13;;;;;;;15.05;66.64;101050.13;5065117;28;20557;-75
2023/05/17 09:56:01;;;;;;;7.00;4.70;;;;;;;14.80;66.68;101044.41;5094499;28;20240;-76
2023/05/17 09:58:30;;;;;;;6.03;4.20;;;;;;;14.72;67.24;101044.53;5088670;28;20184;-78
2023/05/17 10:01:02;;;;;;;7.17;4.60;;;;;;;14.82;67.64;101040.91;5076588;28;20193;-75
2023/05/17 10:03:37;;;;;;;5.93;4.43;;;;;;;14.89;67.42;101050.38;5073418;28;20197;-76
2023/05/17 10:06:05;;;;;;;6.90;3.80;;;;;;;14.80;67.19;101047.03;5095014;28;20307;-77
2023/05/17 10:08:32;;;;;;;5.70;4.10;;;;;;;14.83;67.32;101049.56;5070278;28;20185;-77
2023/05/17 10:11:04;;;;;;;5.90;4.30;;;;;;;14.84;66.81;101052.16;5077610;28;20210;-76
2023/05/17 10:13:34;;;;;;;4.13;3.50;;;;;;;14.76;67.15;101036.63;5077051;28;20242;-76
2023/05/17 10:16:01;;;;;;;6.77;4.00;;;;;;;14.84;67.44;101046.06;5088729;28;20284;-77
2023/05/17 10:18:27;;;;;;;5.30;4.03;;;;;;;14.59;67.31;101036.84;5093885;28;20272;-76
2023/05/17 10:20:54;;;;;;;4.77;3.73;;;;;;;14.61;68.14;101039.44;5094352;28;20188;-76
2023/05/17 10:23:21;;;;;;;5.83;3.90;;;;;;;14.53;68.47;101052.56;5096053;28;20181;-77
2023/05/17 10:25:46;;;;;;;5.33;3.83;;;;;;;14.41;69.62;101040.53;5085016;28;20206;-77
2023/05/17 10:28:15;;;;;;;6.20;3.83;;;;;;;14.50;69.04;101041.31;5094161;28;20191;-76
2023/05/17 10:30:42;;;;;;;5.80;3.87;;;;;;;14.67;69.14;101036.72;5088278;28;20187;-76
2023/05/17 10:33:09;;;;;;;7.90;4.10;;;;;;;14.90;69.27;101040.78;5079241;28;20193;-75
2023/05/17 10:35:34;;;;;;;5.30;3.70;;;;;;;15.14;68.34;101038.66;5077151;28;20251;-75
2023/05/17 10:38:00;;;;;;;5.47;3.77;;;;;;;15.40;67.16;101040.88;5077117;28;20181;-76
2023/05/17 10:40:29;;;;;;;7.83;3.70;;;;;;;15.33;66.15;101047.09;5075602;28;20220;-76
2023/05/17 10:42:56;;;;;;;4.83;3.70;;;;;;;15.63;66.52;101047.44;5087013;28;20182;-77
2023/05/17 10:45:24;;;;;;;5.10;3.33;;;;;;;15.70;66.56;101044.69;5093622;28;20556;-76
2023/05/17 10:47:51;;;;;;;7.37;3.70;;;;;;;15.58;66.58;101039.66;5089934;28;20675;-76
2023/05/17 10:50:25;;;;;;;7.70;3.47;;;;;;;15.18;66.90;101054.28;5070396;28;20192;-77
2023/05/17 10:52:54;;;;;;;5.30;3.00;;;;;;;15.12;66.90;101046.53;5088003;28;20256;-76
2023/05/17 10:55:23;;;;;;;6.40;3.30;;;;;;;15.15;66.68;101067.34;5090053;28;20201;-76
2023/05/17 10:58:19;;;;;;;4.93;2.90;;;;;;;15.08;67.06;101050.94;5089777;28;20575;-78
2023/05/17 11:00:50;;;;;;;4.30;2.80;;;;;;;15.00;66.18;101051.94;5051984;28;20869;-77
2023/05/17 11:03:20;;;;;;;5.30;3.20;;;;;;;15.23;65.87;101046.38;5082384;28;20182;-77
2023/05/17 11:06:17;;;;;;;5.50;3.00;;;;;;;15.44;66.18;101047.75;5084972;28;20201;-77
2023/05/17 11:09:06;;;;;;;5.03;3.20;;;;;;;15.33;66.89;101052.31;5073773;28;20631;-76
2023/05/17 11:11:32;;;;;;;4.27;3.37;;;;;;;15.36;67.43;101052.22;5071541;28;20186;-76
2023/05/17 11:14:02;;;;;;;6.23;3.00;;;;;;;15.38;68.10;101053.06;5075127;28;20181;-78
2023/05/17 11:16:35;;;;;;;4.40;3.50;;;;;;;15.39;67.70;101049.56;5089224;28;20228;-77
2023/05/17 11:19:08;;;;;;;4.43;2.80;;;;;;;15.53;68.04;101058.03;5079436;28;20182;-77
2023/05/17 11:21:34;;;;;;;4.57;2.90;;;;;;;15.54;67.96;101054.53;5079605;28;20187;-78
2023/05/17 11:24:02;;;;;;;4.63;3.07;;;;;;;15.61;67.82;101051.81;5087474;28;20173;-76
2023/05/17 11:26:33;;;;;;;5.03;3.33;;;;;;;15.52;67.99;101048.47;5064837;28;20210;-77